Cleveland, Ohio
Traffic Map
Current Weather Conditions
Cleveland, Ohio
Clear
Clear
26°
Feels Like: 28°
Wind Chill: 26° Ceiling: Unl
Heat Index: 28° Visibility: 10mi
Dew Point: 22° Wind: 5mph
Humidity: 79% Direction: 230° (SW)
Pressure: 30.19in Gusts: 0mph
Raw Report DataKBKL 281353Z 23004KT 10SM CLR 26/22 A3019 RMK AO2 SLP221 T02610222
Traffic Incident Summary
Active as of:
Severity:
Category:
InformationThere was an issue retrieving the traffic information for this location. Please try a different location or try again shortly.
Advertisements
Track Severe Weather on mobile